Archives de nos stations météo

Station météo de Chassignolles

Altitude de la station : 290 m






Données météorologiques pour le 06/02/2023
Date
Heure
Températures Humidité Point de rosée Vitesse
du vent
Direction Rafales Windchill Pression Pluviométrie
Cumul
Date
Heure
Températures Humidité Point de rosée Vitesse
du vent
Direction Rafales Windchill Pression Pluviométrie
Cumul
06/02/2023 23:461.2 °C89 %-0.6 °C8 km/hNE16 km/h-1.7 1032 hPa-
06/02/2023 23:451.2 °C89 %-0.6 °C10 km/hNE24 km/h-1.7 1032 hPa-
06/02/2023 23:311.3 °C88 %-0.6 °C6 km/hNE14 km/h-0.6 1032 hPa-
06/02/2023 23:301.3 °C88 %-0.6 °C3 km/hNE24 km/h0.0 1032 hPa-
06/02/2023 23:151.3 °C88 %-0.6 °C6 km/hENE24 km/h-0.6 1033 hPa-
06/02/2023 23:011.5 °C87 %-0.6 °C2 km/hNE8 km/h1.1 1033 hPa-
06/02/2023 23:001.5 °C87 %-0.6 °C3 km/hNE24 km/h0.6 1033 hPa-
06/02/2023 22:451.6 °C86 %-0.6 °C2 km/hN24 km/h1.1 1033 hPa-
06/02/2023 22:301.9 °C86 %0.0 °C2 km/hNE24 km/h1.1 1033 hPa-
06/02/2023 22:162.2 °C85 %0.0 °C6 km/hNE8 km/h0.6 1033 hPa-
06/02/2023 22:152.2 °C85 %0.0 °C5 km/hNE24 km/h1.1 1033 hPa-
06/02/2023 22:012.3 °C85 %0.0 °C8 km/hNE13 km/h0.0 1033 hPa-
06/02/2023 22:002.4 °C85 %0.0 °C5 km/hNE24 km/h1.1 1034 hPa-
06/02/2023 21:462.6 °C85 %0.6 °C5 km/hNE16 km/h1.7 1034 hPa-
06/02/2023 21:452.6 °C84 %0.0 °C5 km/hNE24 km/h1.7 1034 hPa-
06/02/2023 21:312.8 °C84 %0.6 °C6 km/hNE11 km/h1.1 1034 hPa-
06/02/2023 21:302.8 °C84 %0.6 °C6 km/hNE24 km/h1.1 1034 hPa-
06/02/2023 21:162.8 °C84 %0.6 °C6 km/hNE14 km/h1.1 1034 hPa-
06/02/2023 21:152.9 °C84 %0.6 °C5 km/hNE24 km/h1.7 1034 hPa-
06/02/2023 21:013.0 °C83 %0.6 °C2 km/hNNE6 km/h2.2 1034 hPa-
06/02/2023 21:003.0 °C83 %0.6 °C6 km/hNE24 km/h1.1 1034 hPa-
06/02/2023 20:463.3 °C83 %0.6 °C2 km/hNNE10 km/h2.8 1034 hPa-
06/02/2023 20:453.4 °C83 %0.6 °C2 km/hNNE24 km/h2.8 1034 hPa-
06/02/2023 20:313.6 °C82 %0.6 °C8 km/hNE11 km/h1.7 1034 hPa-
06/02/2023 20:303.6 °C82 %0.6 °C5 km/hENE24 km/h2.8 1034 hPa-
06/02/2023 20:163.9 °C82 %1.1 °C6 km/hNE10 km/h2.2 1034 hPa-
06/02/2023 20:154.0 °C82 %1.1 °C3 km/hNE24 km/h2.8 1034 hPa-
06/02/2023 20:014.3 °C82 %1.7 °C6 km/hNE10 km/h2.8 1035 hPa-
06/02/2023 20:004.3 °C81 %1.1 °C6 km/hENE24 km/h2.8 1035 hPa-
06/02/2023 19:474.4 °C81 %1.7 °C5 km/hNNE11 km/h3.3 1035 hPa-
06/02/2023 19:454.4 °C81 %1.7 °C8 km/hNNE24 km/h2.2 1035 hPa-
06/02/2023 19:324.6 °C81 %1.7 °C8 km/hNNE14 km/h2.2 1035 hPa-
06/02/2023 19:304.6 °C81 %1.7 °C5 km/hNE24 km/h3.3 1035 hPa-
06/02/2023 19:174.8 °C81 %1.7 °C8 km/hNE14 km/h2.8 1035 hPa-
06/02/2023 19:144.8 °C81 %1.7 °C5 km/hNNE24 km/h4.4 1035 hPa-
06/02/2023 19:024.8 °C81 %1.7 °C11 km/hNNE16 km/h2.2 1035 hPa-
06/02/2023 19:004.8 °C81 %1.7 °C5 km/hNE24 km/h4.4 1035 hPa-
06/02/2023 18:475.0 °C80 %1.7 °C10 km/hNE14 km/h2.8 1035 hPa-
06/02/2023 18:455.0 °C80 %1.7 °C5 km/hNE24 km/h4.4 1035 hPa-
06/02/2023 18:325.2 °C79 %1.7 °C5 km/hNE14 km/h4.4 1035 hPa-
06/02/2023 18:305.2 °C79 %1.7 °C8 km/hNE24 km/h2.8 1035 hPa-
06/02/2023 18:165.4 °C79 %2.2 °C10 km/hNNE14 km/h3.3 1035 hPa-
06/02/2023 18:155.4 °C78 %1.7 °C5 km/hNE24 km/h5.0 1034 hPa-
06/02/2023 18:015.7 °C78 %2.2 °C6 km/hENE14 km/h4.4 1034 hPa-
06/02/2023 18:005.7 °C78 %2.2 °C3 km/hNE24 km/h5.0 1034 hPa-
06/02/2023 17:455.7 °C78 %2.2 °C5 km/hNNE24 km/h5.0 1034 hPa-
06/02/2023 17:305.8 °C77 %2.2 °C5 km/hNE10 km/h5.0 1034 hPa-
06/02/2023 17:295.8 °C77 %2.2 °C5 km/hNE24 km/h5.0 1034 hPa-
06/02/2023 17:155.8 °C76 %1.7 °C6 km/hENE24 km/h5.0 1034 hPa-
06/02/2023 17:145.8 °C77 %2.2 °C13 km/hENE24 km/h3.3 1034 hPa-
06/02/2023 17:006.2 °C76 %2.2 °C14 km/hNE19 km/h2.8 1034 hPa-
06/02/2023 16:596.2 °C76 %2.2 °C10 km/hNE24 km/h3.9 1034 hPa-
06/02/2023 16:456.3 °C76 %2.2 °C19 km/hENE23 km/h2.2 1034 hPa-
06/02/2023 16:446.3 °C77 %2.8 °C10 km/hNE24 km/h3.9 1034 hPa-
06/02/2023 16:306.3 °C77 %2.8 °C11 km/hNE24 km/h3.3 1034 hPa-
06/02/2023 16:296.3 °C77 %2.8 °C11 km/hNE24 km/h3.3 1034 hPa-
06/02/2023 16:156.7 °C77 %2.8 °C10 km/hNNE24 km/h4.4 1034 hPa-
06/02/2023 16:146.7 °C77 %2.8 °C10 km/hNNE23 km/h4.4 1034 hPa-
06/02/2023 16:006.8 °C75 %2.8 °C8 km/hE16 km/h5.0 1034 hPa-
06/02/2023 15:596.8 °C74 %2.2 °C8 km/hE23 km/h5.0 1034 hPa-
06/02/2023 15:457.1 °C76 %3.3 °C13 km/hENE19 km/h4.4 1034 hPa-
06/02/2023 15:447.0 °C77 %3.3 °C14 km/hSSE23 km/h4.4 1034 hPa-
06/02/2023 15:306.6 °C78 %2.8 °C10 km/hENE21 km/h4.4 1034 hPa-
06/02/2023 15:296.6 °C78 %2.8 °C10 km/hNE23 km/h4.4 1034 hPa-
06/02/2023 15:156.6 °C80 %3.3 °C5 km/hN18 km/h6.1 1034 hPa-
06/02/2023 15:146.5 °C80 %3.3 °C5 km/hESE23 km/h6.1 1034 hPa-
06/02/2023 15:006.4 °C80 %3.3 °C6 km/hNE23 km/h5.6 1034 hPa-
06/02/2023 14:596.4 °C80 %3.3 °C8 km/hNNE23 km/h5.0 1034 hPa-
06/02/2023 14:456.5 °C79 %3.3 °C14 km/hNE18 km/h3.3 1035 hPa-
06/02/2023 14:446.4 °C78 %2.8 °C6 km/hENE21 km/h5.6 1035 hPa-
06/02/2023 14:306.3 °C78 %2.8 °C11 km/hNE19 km/h3.3 1035 hPa-
06/02/2023 14:296.3 °C78 %2.8 °C14 km/hE21 km/h2.8 1035 hPa-
06/02/2023 14:155.8 °C80 %2.8 °C6 km/hNE16 km/h5.0 1035 hPa-
06/02/2023 14:145.8 °C80 %2.8 °C5 km/hENE21 km/h5.6 1035 hPa-
06/02/2023 14:005.9 °C80 %2.8 °C11 km/hE21 km/h3.3 1035 hPa-
06/02/2023 13:455.4 °C80 %2.2 °C8 km/hENE21 km/h3.3 1035 hPa-
06/02/2023 13:305.4 °C83 %2.8 °C6 km/hENE21 km/h4.4 1035 hPa-
06/02/2023 13:155.2 °C82 %2.2 °C8 km/hNE21 km/h2.8 1036 hPa-
06/02/2023 13:005.3 °C83 %2.8 °C8 km/hNNE21 km/h3.3 1036 hPa-
06/02/2023 12:464.9 °C84 %2.2 °C21 km/hENE21 km/h1.1 1036 hPa-
06/02/2023 12:454.9 °C84 %2.2 °C11 km/hE19 km/h2.2 1036 hPa-
06/02/2023 12:314.7 °C85 %2.2 °C13 km/hENE16 km/h1.7 1036 hPa-
06/02/2023 12:304.7 °C85 %2.2 °C14 km/hE19 km/h1.7 1036 hPa-
06/02/2023 12:164.7 °C85 %2.2 °C6 km/hE16 km/h3.9 1036 hPa-
06/02/2023 12:154.7 °C85 %2.2 °C5 km/hNNE19 km/h4.4 1036 hPa-
06/02/2023 12:014.6 °C85 %2.2 °C14 km/hE19 km/h1.1 1036 hPa-
06/02/2023 12:004.6 °C86 %2.8 °C6 km/hNE19 km/h2.8 1036 hPa-
06/02/2023 11:464.3 °C88 %2.8 °C5 km/hNNE19 km/h3.3 1036 hPa-
06/02/2023 11:454.2 °C87 %2.2 °C3 km/hNE19 km/h3.3 1036 hPa-
06/02/2023 11:313.3 °C89 %1.7 °C6 km/hNE14 km/h1.7 1037 hPa-
06/02/2023 11:303.3 °C89 %1.7 °C8 km/hENE16 km/h1.1 1037 hPa-
06/02/2023 11:163.2 °C90 %1.7 °C6 km/hNNE11 km/h1.7 1036 hPa-
06/02/2023 11:153.2 °C90 %1.7 °C10 km/hNE16 km/h0.6 1036 hPa-
06/02/2023 11:012.9 °C90 %1.7 °C3 km/hENE10 km/h1.7 1037 hPa-
06/02/2023 11:002.9 °C90 %1.7 °C2 km/hNE16 km/h2.2 1037 hPa-
06/02/2023 10:462.7 °C91 %1.7 °C8 km/hNNE13 km/h0.6 1037 hPa-
06/02/2023 10:452.7 °C91 %1.7 °C3 km/hN16 km/h1.7 1037 hPa-
06/02/2023 10:312.2 °C91 %1.1 °C5 km/hNNE6 km/h1.1 1037 hPa-
06/02/2023 10:302.2 °C91 %1.1 °C6 km/hN16 km/h0.6 1037 hPa-
06/02/2023 10:161.9 °C91 %0.6 °C3 km/hNNO8 km/h1.1 1037 hPa-
06/02/2023 10:141.9 °C92 %0.6 °C5 km/hNE16 km/h1.1 1036 hPa-
06/02/2023 10:011.7 °C92 %0.6 °C2 km/hNE6 km/h1.1 1037 hPa-
06/02/2023 10:001.7 °C92 %0.6 °C3 km/hNE16 km/h0.6 1037 hPa-
06/02/2023 09:451.4 °C92 %0.6 °C3 km/hENE8 km/h0.6 1037 hPa-
06/02/2023 09:441.4 °C92 %0.6 °C3 km/hNE16 km/h0.6 1037 hPa-
06/02/2023 09:301.2 °C92 %0.0 °C2 km/hNE6 km/h0.6 1037 hPa-
06/02/2023 09:291.1 °C92 %0.0 °C5 km/hNNE16 km/h0.0 1037 hPa-
06/02/2023 09:150.9 °C92 %0.0 °C5 km/hNE5 km/h0.0 1037 hPa-
06/02/2023 09:140.9 °C92 %0.0 °C3 km/hNE16 km/h0.0 1037 hPa-
06/02/2023 09:000.7 °C92 %-0.6 °C2 km/hENE8 km/h0.0 1037 hPa-
06/02/2023 08:590.7 °C92 %-0.6 °C2 km/hE16 km/h0.0 1037 hPa-
06/02/2023 08:450.7 °C92 %-0.6 °C2 km/hN5 km/h0.0 1037 hPa-
06/02/2023 08:440.7 °C92 %-0.6 °C2 km/hNNE16 km/h0.0 1037 hPa-
06/02/2023 08:300.7 °C92 %-0.6 °C2 km/hN5 km/h0.0 1037 hPa-
06/02/2023 08:290.7 °C92 %-0.6 °C2 km/hN16 km/h0.0 1037 hPa-
06/02/2023 08:150.7 °C92 %-0.6 °C3 km/hN5 km/h-0.6 1037 hPa-
06/02/2023 08:140.6 °C92 %-0.6 °C3 km/hNNO16 km/h-0.6 1037 hPa-
06/02/2023 08:000.7 °C92 %-0.6 °C3 km/hN5 km/h-0.6 1037 hPa-
06/02/2023 07:590.7 °C92 %-0.6 °C5 km/hNNO16 km/h-0.6 1037 hPa-
06/02/2023 07:450.7 °C91 %-0.6 °C2 km/hNNE6 km/h0.0 1037 hPa-
06/02/2023 07:440.7 °C91 %-0.6 °C-NNE16 km/h0.6 1037 hPa-
06/02/2023 07:300.8 °C91 %-0.6 °C3 km/hNNE13 km/h0.0 1036 hPa-
06/02/2023 07:290.9 °C91 %-0.6 °C2 km/hNNE16 km/h0.6 1036 hPa-
06/02/2023 07:151.0 °C91 %0.0 °C5 km/hNE8 km/h0.0 1037 hPa-
06/02/2023 07:141.0 °C90 %-0.6 °C5 km/hNE16 km/h0.0 1037 hPa-
06/02/2023 07:001.2 °C90 %0.0 °C5 km/hNNE10 km/h0.0 1036 hPa-
06/02/2023 06:591.2 °C90 %0.0 °C6 km/hNE16 km/h-0.6 1036 hPa-
06/02/2023 06:451.4 °C90 %0.0 °C3 km/hNE10 km/h0.6 1036 hPa-
06/02/2023 06:441.4 °C90 %0.0 °C3 km/hNE16 km/h0.6 1036 hPa-
06/02/2023 06:301.7 °C90 %0.6 °C6 km/hENE11 km/h0.0 1036 hPa-
06/02/2023 06:291.7 °C89 %0.0 °C5 km/hNE16 km/h0.6 1037 hPa-
06/02/2023 06:151.9 °C90 %0.6 °C5 km/hNE11 km/h0.6 1036 hPa-
06/02/2023 06:141.9 °C90 %0.6 °C5 km/hENE16 km/h0.6 1036 hPa-
06/02/2023 06:001.9 °C90 %0.6 °C5 km/hNE11 km/h1.1 1037 hPa-
06/02/2023 05:591.9 °C90 %0.6 °C6 km/hNE16 km/h0.6 1037 hPa-
06/02/2023 05:451.9 °C90 %0.6 °C5 km/hNE6 km/h1.1 1037 hPa-
06/02/2023 05:441.9 °C90 %0.6 °C3 km/hENE16 km/h0.6 1037 hPa-
06/02/2023 05:301.8 °C90 %0.6 °C3 km/hNNE10 km/h0.6 1037 hPa-
06/02/2023 05:291.8 °C90 %0.6 °C5 km/hNE16 km/h0.6 1037 hPa-
06/02/2023 05:161.8 °C90 %0.6 °C8 km/hNE11 km/h-1.1 1037 hPa-
06/02/2023 05:141.8 °C90 %0.6 °C8 km/hNE16 km/h-1.1 1037 hPa-
06/02/2023 05:001.9 °C89 %0.6 °C5 km/hNE10 km/h0.6 1037 hPa-
06/02/2023 04:591.8 °C89 %0.0 °C6 km/hNE16 km/h0.0 1037 hPa-
06/02/2023 04:451.9 °C89 %0.6 °C6 km/hENE11 km/h0.0 1037 hPa-
06/02/2023 04:441.9 °C89 %0.6 °C5 km/hNE16 km/h0.6 1037 hPa-
06/02/2023 04:312.0 °C89 %0.6 °C6 km/hNE13 km/h0.6 1037 hPa-
06/02/2023 04:291.9 °C89 %0.6 °C5 km/hENE16 km/h1.1 1037 hPa-
06/02/2023 04:162.1 °C89 %0.6 °C8 km/hNE14 km/h0.0 1037 hPa-
06/02/2023 04:142.0 °C89 %0.6 °C5 km/hNE16 km/h1.1 1037 hPa-
06/02/2023 04:002.1 °C89 %0.6 °C6 km/hNNE10 km/h0.6 1037 hPa-
06/02/2023 03:592.0 °C89 %0.6 °C5 km/hNNE16 km/h1.1 1037 hPa-
06/02/2023 03:462.0 °C89 %0.6 °C8 km/hNE11 km/h0.0 1037 hPa-
06/02/2023 03:442.0 °C89 %0.6 °C5 km/hNE16 km/h1.1 1037 hPa-
06/02/2023 03:312.1 °C89 %0.6 °C6 km/hNE10 km/h0.6 1037 hPa-
06/02/2023 03:292.0 °C89 %0.6 °C5 km/hNE16 km/h1.1 1037 hPa-
06/02/2023 03:162.0 °C88 %0.0 °C5 km/hNE11 km/h1.1 1037 hPa-
06/02/2023 03:141.9 °C88 %0.0 °C6 km/hENE16 km/h0.6 1037 hPa-
06/02/2023 03:001.8 °C88 %0.0 °C6 km/hENE16 km/h0.0 1038 hPa-
06/02/2023 02:591.9 °C88 %0.0 °C6 km/hE16 km/h0.0 1038 hPa-
06/02/2023 02:461.8 °C88 %0.0 °C3 km/hNNE8 km/h0.6 1038 hPa-
06/02/2023 02:441.8 °C88 %0.0 °C3 km/hNNE16 km/h0.6 1038 hPa-
06/02/2023 02:311.7 °C88 %0.0 °C6 km/hN10 km/h0.0 1038 hPa-
06/02/2023 02:291.6 °C88 %0.0 °C6 km/hNNE16 km/h0.0 1038 hPa-
06/02/2023 02:161.5 °C88 %0.0 °C-NNE6 km/h1.7 1038 hPa-
06/02/2023 02:141.6 °C88 %0.0 °C-NE16 km/h1.7 1038 hPa-
06/02/2023 02:001.6 °C88 %0.0 °C11 km/hNE16 km/h-1.1 1038 hPa-
06/02/2023 01:461.6 °C87 %-0.6 °C3 km/hNNE5 km/h0.6 1038 hPa-
06/02/2023 01:441.6 °C87 %-0.6 °C-NE16 km/h1.7 1038 hPa-
06/02/2023 01:301.8 °C87 %0.0 °C5 km/hNE16 km/h0.6 1038 hPa-
06/02/2023 01:151.9 °C87 %0.0 °C8 km/hNNO11 km/h-1.1 1038 hPa-
06/02/2023 01:141.9 °C87 %0.0 °C5 km/hNNE16 km/h0.6 1038 hPa-
06/02/2023 01:002.1 °C86 %0.0 °C6 km/hN14 km/h0.6 1038 hPa-
06/02/2023 00:592.1 °C86 %0.0 °C6 km/hNE16 km/h0.6 1038 hPa-
06/02/2023 00:462.1 °C86 %0.0 °C10 km/hNE16 km/h-0.6 1038 hPa-
06/02/2023 00:442.1 °C86 %0.0 °C5 km/hNE14 km/h1.1 1038 hPa-
06/02/2023 00:312.3 °C85 %0.0 °C3 km/hNE10 km/h1.1 1038 hPa-
06/02/2023 00:302.3 °C85 %0.0 °C3 km/hNE14 km/h1.1 1038 hPa-
06/02/2023 00:142.5 °C84 %0.0 °C6 km/hNE14 km/h1.1 1038 hPa-
06/02/2023 00:002.7 °C84 %0.0 °C5 km/hNNE14 km/h1.7 1038 hPa-


Minima :

Température : 0.6 °C
Humidité : 74 %
Point de rosée : -0.6 °C
Vent moyen : 2 km/h
Windchill : -1.7
Pression atm. : 1032 hPa
Maxima :

Température : 7.1 °C
Humidité : 92 %
Point de rosée : 3.3 °C
Vent moyen : 21 km/h
Windchill : 6.1
Pression atm. : 1038 hPa
Rafales max : 24 km/h
Cumul de pluie sur 24H : 0 mm

Chassignolles est une commune du département Indre (36).
La station météorologique du réseau de l'association la plus proche de Chassignolles est celle de Beddes


Descriptif du réseau de station de l'association Météo Centre (R.S.M.C)

Carte de la région Centre - Val de Loire

Carte de la région Centre - Val de Loire couvert par notre réseau météorologique

L'association météo centre et ses bénévoles développent et gère ce réseau. Il regroupe des stations météorologiques semi-professionnelles de marque Davis Instruments et est notamment composé de Davis Vantage Pro 2 mais aussi de Davis Vantage Vue.

Ce sont des passionnés de météorologie qui, avec ou sans l'aide de l'association, implantent ce type de matériel depuis la création de notre organisation en 2011.

Les données de chaque station de réseau sont hébergées sur le serveur de l'association. Elles sont ensuite mises gratuitement à votre disposition sur cette page, mais également sur la carte d'observation météorologique du Centre - Val de Loire.

Certaines stations sont installées en dehors de notre région. Elles permettent d'avoir une vision plus large des conditions météorologiques autour de notre territoire, retrouvez ici la carte de notre réseau de station Météo Centre (R.S.M.C).

Notre réseau surveille donc en permanence les conditions météo dans la région Centre - Val de Loire. Si vous possédez du matériel météo de marque Davis, faite comme plus de 60 autres passionnés, contactez nous pour nous rejoindre.


Contenu des archives météo de notre réseau

Chaque station météo du réseau émet les données suivantes toutes les 15 à 30 minutes :

Station météorologique Davis Vantage Pro 2

Exemple de station météorologique du réseau de station Météo Centre

  • la température extérieure
  • l'humidité
  • le point de rosée
  • la vitesse du vent
  • la direction du vent
  • les rafales
  • le windchill (refroidissement éolien)
  • la pression
  • le cumul de pluie

Nous archivons ces informations météorologiques et nous les mettons gratuitement à disposition du grand public. Nous les partageons également avec des professionnels, des collectivités voire des établissements publics quand ils en expriment le besoin.

Toutefois, les archives des stations ne sont pas toutes aussi anciennes puisque les installations se déroulent année après année. Retrouvez ces archives météo pour la région Centre - Val de Loire en cliquant ici.

Merci à tous les propriétaires de stations météorologiques de partager leurs données mais aussi de les rendre accessibles au plus grand nombre.